sensor_id;sensor_type;location;lat;lon;timestamp;P1;durP1;ratioP1;P2;durP2;ratioP2
7929;SDS011;4010;42.698;23.124;2023-02-24T00:00:58;18.43;;;10.53;;
7929;SDS011;4010;42.698;23.124;2023-02-24T00:03:34;19.90;;;12.03;;
7929;SDS011;4010;42.698;23.124;2023-02-24T00:06:02;17.97;;;10.27;;
7929;SDS011;4010;42.698;23.124;2023-02-24T00:08:36;17.53;;;10.53;;
7929;SDS011;4010;42.698;23.124;2023-02-24T00:11:06;16.77;;;10.13;;
7929;SDS011;4010;42.698;23.124;2023-02-24T00:13:34;19.90;;;10.47;;
7929;SDS011;4010;42.698;23.124;2023-02-24T00:16:02;18.37;;;9.37;;
7929;SDS011;4010;42.698;23.124;2023-02-24T00:18:30;17.83;;;10.00;;
7929;SDS011;4010;42.698;23.124;2023-02-24T00:21:03;18.77;;;9.10;;
7929;SDS011;4010;42.698;23.124;2023-02-24T00:23:35;17.93;;;9.23;;
7929;SDS011;4010;42.698;23.124;2023-02-24T00:26:02;17.23;;;9.70;;
7929;SDS011;4010;42.698;23.124;2023-02-24T00:28:30;14.23;;;8.37;;
7929;SDS011;4010;42.698;23.124;2023-02-24T00:31:01;14.30;;;8.97;;
7929;SDS011;4010;42.698;23.124;2023-02-24T00:33:29;13.90;;;8.00;;
7929;SDS011;4010;42.698;23.124;2023-02-24T00:36:04;13.67;;;8.23;;
7929;SDS011;4010;42.698;23.124;2023-02-24T00:38:32;11.77;;;7.53;;
7929;SDS011;4010;42.698;23.124;2023-02-24T00:41:01;14.60;;;7.93;;
7929;SDS011;4010;42.698;23.124;2023-02-24T00:43:33;11.97;;;6.80;;
7929;SDS011;4010;42.698;23.124;2023-02-24T00:46:02;10.77;;;7.03;;
7929;SDS011;4010;42.698;23.124;2023-02-24T00:48:35;10.30;;;7.17;;
7929;SDS011;4010;42.698;23.124;2023-02-24T00:51:06;12.10;;;7.30;;
7929;SDS011;4010;42.698;23.124;2023-02-24T00:53:34;9.27;;;6.53;;
7929;SDS011;4010;42.698;23.124;2023-02-24T00:56:02;11.37;;;6.27;;
7929;SDS011;4010;42.698;23.124;2023-02-24T00:58:31;12.80;;;5.63;;
7929;SDS011;4010;42.698;23.124;2023-02-24T01:00:58;8.57;;;5.93;;
7929;SDS011;4010;42.698;23.124;2023-02-24T01:03:25;10.40;;;6.07;;
7929;SDS011;4010;42.698;23.124;2023-02-24T01:05:53;8.23;;;6.10;;
7929;SDS011;4010;42.698;23.124;2023-02-24T01:08:21;7.97;;;5.67;;
7929;SDS011;4010;42.698;23.124;2023-02-24T01:10:53;9.27;;;6.17;;
7929;SDS011;4010;42.698;23.124;2023-02-24T01:13:43;9.33;;;5.77;;
7929;SDS011;4010;42.698;23.124;2023-02-24T01:16:08;9.47;;;5.73;;
7929;SDS011;4010;42.698;23.124;2023-02-24T01:18:37;9.77;;;6.17;;
7929;SDS011;4010;42.698;23.124;2023-02-24T01:21:04;9.40;;;5.23;;
7929;SDS011;4010;42.698;23.124;2023-02-24T01:23:32;10.03;;;5.70;;
7929;SDS011;4010;42.698;23.124;2023-02-24T01:26:01;9.83;;;5.77;;
7929;SDS011;4010;42.698;23.124;2023-02-24T01:28:28;10.33;;;5.30;;
7929;SDS011;4010;42.698;23.124;2023-02-24T01:30:59;10.07;;;5.77;;
7929;SDS011;4010;42.698;23.124;2023-02-24T01:33:27;10.47;;;5.50;;
7929;SDS011;4010;42.698;23.124;2023-02-24T01:35:54;8.63;;;5.73;;
7929;SDS011;4010;42.698;23.124;2023-02-24T01:38:21;8.60;;;5.63;;
7929;SDS011;4010;42.698;23.124;2023-02-24T01:40:55;6.50;;;5.27;;
7929;SDS011;4010;42.698;23.124;2023-02-24T01:43:23;9.27;;;5.80;;
7929;SDS011;4010;42.698;23.124;2023-02-24T01:45:52;8.30;;;5.40;;
7929;SDS011;4010;42.698;23.124;2023-02-24T01:48:19;9.23;;;5.17;;
7929;SDS011;4010;42.698;23.124;2023-02-24T01:50:46;7.33;;;5.20;;
7929;SDS011;4010;42.698;23.124;2023-02-24T01:53:14;10.07;;;5.40;;
7929;SDS011;4010;42.698;23.124;2023-02-24T01:55:42;6.57;;;4.97;;
7929;SDS011;4010;42.698;23.124;2023-02-24T01:58:18;10.13;;;5.50;;
7929;SDS011;4010;42.698;23.124;2023-02-24T02:00:48;8.83;;;5.43;;
7929;SDS011;4010;42.698;23.124;2023-02-24T02:03:23;6.50;;;4.70;;
7929;SDS011;4010;42.698;23.124;2023-02-24T02:05:55;7.17;;;4.67;;
7929;SDS011;4010;42.698;23.124;2023-02-24T02:08:25;10.07;;;5.40;;
7929;SDS011;4010;42.698;23.124;2023-02-24T02:10:53;6.97;;;4.67;;
7929;SDS011;4010;42.698;23.124;2023-02-24T02:13:26;5.43;;;4.63;;
7929;SDS011;4010;42.698;23.124;2023-02-24T02:16:03;9.23;;;4.77;;
7929;SDS011;4010;42.698;23.124;2023-02-24T02:18:45;7.70;;;4.67;;
7929;SDS011;4010;42.698;23.124;2023-02-24T02:33:39;6.83;;;4.50;;
7929;SDS011;4010;42.698;23.124;2023-02-24T02:36:21;7.47;;;4.27;;
7929;SDS011;4010;42.698;23.124;2023-02-24T02:38:57;7.20;;;4.70;;
7929;SDS011;4010;42.698;23.124;2023-02-24T02:41:30;7.20;;;4.67;;
7929;SDS011;4010;42.698;23.124;2023-02-24T02:44:03;7.20;;;4.27;;
7929;SDS011;4010;42.698;23.124;2023-02-24T02:46:34;7.50;;;4.67;;
7929;SDS011;4010;42.698;23.124;2023-02-24T02:49:12;8.57;;;5.50;;
7929;SDS011;4010;42.698;23.124;2023-02-24T02:51:43;8.67;;;5.07;;
7929;SDS011;4010;42.698;23.124;2023-02-24T02:54:16;7.43;;;4.60;;
7929;SDS011;4010;42.698;23.124;2023-02-24T02:56:48;5.77;;;3.73;;
7929;SDS011;4010;42.698;23.124;2023-02-24T02:59:21;10.67;;;5.07;;
7929;SDS011;4010;42.698;23.124;2023-02-24T03:01:51;6.37;;;4.67;;
7929;SDS011;4010;42.698;23.124;2023-02-24T03:04:26;7.77;;;4.67;;
7929;SDS011;4010;42.698;23.124;2023-02-24T03:06:56;8.00;;;5.13;;
7929;SDS011;4010;42.698;23.124;2023-02-24T03:09:27;9.17;;;6.10;;
7929;SDS011;4010;42.698;23.124;2023-02-24T03:11:56;9.97;;;5.50;;
7929;SDS011;4010;42.698;23.124;2023-02-24T03:14:28;9.90;;;5.90;;
7929;SDS011;4010;42.698;23.124;2023-02-24T03:16:59;9.13;;;5.77;;
7929;SDS011;4010;42.698;23.124;2023-02-24T03:19:32;9.37;;;5.03;;
7929;SDS011;4010;42.698;23.124;2023-02-24T03:22:03;9.93;;;5.67;;
7929;SDS011;4010;42.698;23.124;2023-02-24T03:24:37;8.80;;;5.77;;
7929;SDS011;4010;42.698;23.124;2023-02-24T03:27:05;11.03;;;6.37;;
7929;SDS011;4010;42.698;23.124;2023-02-24T03:29:38;8.77;;;5.57;;
7929;SDS011;4010;42.698;23.124;2023-02-24T03:32:11;9.20;;;5.53;;
7929;SDS011;4010;42.698;23.124;2023-02-24T03:34:46;10.03;;;5.93;;
7929;SDS011;4010;42.698;23.124;2023-02-24T03:37:20;8.93;;;5.70;;
7929;SDS011;4010;42.698;23.124;2023-02-24T03:39:51;8.73;;;5.40;;
7929;SDS011;4010;42.698;23.124;2023-02-24T03:42:18;8.80;;;5.73;;
7929;SDS011;4010;42.698;23.124;2023-02-24T03:44:47;9.37;;;5.23;;
7929;SDS011;4010;42.698;23.124;2023-02-24T03:47:14;8.53;;;5.53;;
7929;SDS011;4010;42.698;23.124;2023-02-24T03:49:45;7.67;;;5.37;;
7929;SDS011;4010;42.698;23.124;2023-02-24T03:52:17;10.07;;;5.73;;
7929;SDS011;4010;42.698;23.124;2023-02-24T03:55:06;7.37;;;5.37;;
7929;SDS011;4010;42.698;23.124;2023-02-24T03:57:44;8.37;;;5.77;;
7929;SDS011;4010;42.698;23.124;2023-02-24T04:00:26;7.70;;;4.67;;
7929;SDS011;4010;42.698;23.124;2023-02-24T04:03:01;8.50;;;5.03;;
7929;SDS011;4010;42.698;23.124;2023-02-24T04:05:38;7.83;;;5.30;;
7929;SDS011;4010;42.698;23.124;2023-02-24T04:08:11;7.23;;;5.10;;
7929;SDS011;4010;42.698;23.124;2023-02-24T04:10:43;8.97;;;5.23;;
7929;SDS011;4010;42.698;23.124;2023-02-24T04:13:19;12.97;;;5.60;;
7929;SDS011;4010;42.698;23.124;2023-02-24T04:15:57;9.80;;;5.50;;
7929;SDS011;4010;42.698;23.124;2023-02-24T04:18:28;7.20;;;5.30;;
7929;SDS011;4010;42.698;23.124;2023-02-24T04:20:59;7.83;;;5.00;;
7929;SDS011;4010;42.698;23.124;2023-02-24T04:23:30;6.83;;;4.63;;
7929;SDS011;4010;42.698;23.124;2023-02-24T04:25:59;8.63;;;5.23;;
7929;SDS011;4010;42.698;23.124;2023-02-24T04:28:27;7.07;;;5.33;;
7929;SDS011;4010;42.698;23.124;2023-02-24T04:30:56;8.23;;;5.30;;
7929;SDS011;4010;42.698;23.124;2023-02-24T04:33:29;7.43;;;4.97;;
7929;SDS011;4010;42.698;23.124;2023-02-24T04:35:58;7.60;;;5.30;;
7929;SDS011;4010;42.698;23.124;2023-02-24T04:38:25;7.83;;;5.20;;
7929;SDS011;4010;42.698;23.124;2023-02-24T04:40:52;9.07;;;5.07;;
7929;SDS011;4010;42.698;23.124;2023-02-24T04:43:19;8.07;;;6.10;;
7929;SDS011;4010;42.698;23.124;2023-02-24T04:45:46;21.07;;;13.00;;
7929;SDS011;4010;42.698;23.124;2023-02-24T04:48:12;7.63;;;5.70;;
7929;SDS011;4010;42.698;23.124;2023-02-24T04:50:40;6.30;;;4.70;;
7929;SDS011;4010;42.698;23.124;2023-02-24T04:53:10;7.57;;;5.00;;
7929;SDS011;4010;42.698;23.124;2023-02-24T04:55:39;9.07;;;6.27;;
7929;SDS011;4010;42.698;23.124;2023-02-24T04:58:08;7.93;;;5.80;;
7929;SDS011;4010;42.698;23.124;2023-02-24T05:00:37;8.77;;;5.73;;
7929;SDS011;4010;42.698;23.124;2023-02-24T05:03:05;8.80;;;5.83;;
7929;SDS011;4010;42.698;23.124;2023-02-24T05:05:34;7.73;;;5.80;;
7929;SDS011;4010;42.698;23.124;2023-02-24T05:08:01;7.90;;;5.03;;
7929;SDS011;4010;42.698;23.124;2023-02-24T05:10:35;7.17;;;5.53;;
7929;SDS011;4010;42.698;23.124;2023-02-24T05:13:03;7.83;;;5.53;;
7929;SDS011;4010;42.698;23.124;2023-02-24T05:15:31;7.47;;;5.20;;
7929;SDS011;4010;42.698;23.124;2023-02-24T05:17:58;7.50;;;5.47;;
7929;SDS011;4010;42.698;23.124;2023-02-24T05:20:25;7.90;;;5.10;;
7929;SDS011;4010;42.698;23.124;2023-02-24T05:23:10;7.73;;;5.20;;
7929;SDS011;4010;42.698;23.124;2023-02-24T05:25:38;7.37;;;5.17;;
7929;SDS011;4010;42.698;23.124;2023-02-24T05:28:07;7.27;;;4.93;;
7929;SDS011;4010;42.698;23.124;2023-02-24T05:30:34;7.40;;;5.03;;
7929;SDS011;4010;42.698;23.124;2023-02-24T05:33:01;6.87;;;4.87;;
7929;SDS011;4010;42.698;23.124;2023-02-24T05:35:28;8.43;;;4.77;;
7929;SDS011;4010;42.698;23.124;2023-02-24T05:37:56;9.10;;;5.23;;
7929;SDS011;4010;42.698;23.124;2023-02-24T05:40:23;6.67;;;4.73;;
7929;SDS011;4010;42.698;23.124;2023-02-24T05:42:51;7.00;;;5.37;;
7929;SDS011;4010;42.698;23.124;2023-02-24T05:45:18;11.93;;;7.10;;
7929;SDS011;4010;42.698;23.124;2023-02-24T05:47:45;9.90;;;6.47;;
7929;SDS011;4010;42.698;23.124;2023-02-24T05:50:12;11.03;;;7.27;;
7929;SDS011;4010;42.698;23.124;2023-02-24T05:52:39;9.90;;;6.67;;
7929;SDS011;4010;42.698;23.124;2023-02-24T05:55:09;10.43;;;7.60;;
7929;SDS011;4010;42.698;23.124;2023-02-24T05:57:38;9.53;;;5.50;;
7929;SDS011;4010;42.698;23.124;2023-02-24T06:00:07;6.73;;;5.33;;
7929;SDS011;4010;42.698;23.124;2023-02-24T06:02:39;9.90;;;5.33;;
7929;SDS011;4010;42.698;23.124;2023-02-24T06:05:13;6.90;;;4.97;;
7929;SDS011;4010;42.698;23.124;2023-02-24T06:07:49;8.83;;;5.93;;
7929;SDS011;4010;42.698;23.124;2023-02-24T06:10:20;7.97;;;5.57;;
7929;SDS011;4010;42.698;23.124;2023-02-24T06:12:47;7.70;;;5.63;;
7929;SDS011;4010;42.698;23.124;2023-02-24T06:15:15;8.30;;;5.13;;
7929;SDS011;4010;42.698;23.124;2023-02-24T06:17:42;8.03;;;5.60;;
7929;SDS011;4010;42.698;23.124;2023-02-24T06:20:09;7.93;;;5.97;;
7929;SDS011;4010;42.698;23.124;2023-02-24T06:22:39;11.17;;;6.07;;
7929;SDS011;4010;42.698;23.124;2023-02-24T06:25:07;7.67;;;5.53;;
7929;SDS011;4010;42.698;23.124;2023-02-24T06:27:35;10.20;;;6.17;;
7929;SDS011;4010;42.698;23.124;2023-02-24T06:30:03;7.90;;;5.93;;
7929;SDS011;4010;42.698;23.124;2023-02-24T06:32:35;11.33;;;5.80;;
7929;SDS011;4010;42.698;23.124;2023-02-24T06:35:02;6.80;;;5.07;;
7929;SDS011;4010;42.698;23.124;2023-02-24T06:37:29;6.33;;;5.23;;
7929;SDS011;4010;42.698;23.124;2023-02-24T06:39:55;8.57;;;5.77;;
7929;SDS011;4010;42.698;23.124;2023-02-24T06:42:23;8.13;;;5.50;;
7929;SDS011;4010;42.698;23.124;2023-02-24T06:44:50;7.03;;;5.23;;
7929;SDS011;4010;42.698;23.124;2023-02-24T06:47:16;8.77;;;6.00;;
7929;SDS011;4010;42.698;23.124;2023-02-24T06:49:44;5.60;;;4.47;;
7929;SDS011;4010;42.698;23.124;2023-02-24T06:52:12;6.40;;;5.37;;
7929;SDS011;4010;42.698;23.124;2023-02-24T06:54:42;10.20;;;5.47;;
7929;SDS011;4010;42.698;23.124;2023-02-24T06:57:11;8.70;;;5.30;;
7929;SDS011;4010;42.698;23.124;2023-02-24T06:59:38;7.43;;;5.07;;
7929;SDS011;4010;42.698;23.124;2023-02-24T07:02:05;8.03;;;5.37;;
7929;SDS011;4010;42.698;23.124;2023-02-24T07:04:32;7.23;;;4.97;;
7929;SDS011;4010;42.698;23.124;2023-02-24T07:07:09;10.60;;;6.13;;
7929;SDS011;4010;42.698;23.124;2023-02-24T07:09:38;10.63;;;6.30;;
7929;SDS011;4010;42.698;23.124;2023-02-24T07:12:05;7.93;;;5.93;;
7929;SDS011;4010;42.698;23.124;2023-02-24T07:14:35;9.00;;;5.20;;
7929;SDS011;4010;42.698;23.124;2023-02-24T07:17:02;7.20;;;4.90;;
7929;SDS011;4010;42.698;23.124;2023-02-24T07:19:30;7.80;;;4.90;;
7929;SDS011;4010;42.698;23.124;2023-02-24T07:21:57;7.60;;;4.70;;
7929;SDS011;4010;42.698;23.124;2023-02-24T07:24:28;8.83;;;5.47;;
7929;SDS011;4010;42.698;23.124;2023-02-24T07:27:01;5.90;;;4.93;;
7929;SDS011;4010;42.698;23.124;2023-02-24T07:29:29;8.83;;;5.30;;
7929;SDS011;4010;42.698;23.124;2023-02-24T07:31:57;8.73;;;5.40;;
7929;SDS011;4010;42.698;23.124;2023-02-24T07:34:25;10.57;;;6.67;;
7929;SDS011;4010;42.698;23.124;2023-02-24T07:36:52;9.43;;;6.53;;
7929;SDS011;4010;42.698;23.124;2023-02-24T07:39:20;14.23;;;6.80;;
7929;SDS011;4010;42.698;23.124;2023-02-24T07:41:49;7.80;;;5.07;;
7929;SDS011;4010;42.698;23.124;2023-02-24T07:44:19;9.67;;;6.33;;
7929;SDS011;4010;42.698;23.124;2023-02-24T07:46:48;11.80;;;6.40;;
7929;SDS011;4010;42.698;23.124;2023-02-24T07:49:17;9.00;;;6.53;;
7929;SDS011;4010;42.698;23.124;2023-02-24T07:51:46;8.23;;;5.80;;
7929;SDS011;4010;42.698;23.124;2023-02-24T07:54:16;12.77;;;6.13;;
7929;SDS011;4010;42.698;23.124;2023-02-24T07:56:43;10.50;;;5.60;;
7929;SDS011;4010;42.698;23.124;2023-02-24T07:59:21;8.40;;;5.23;;
7929;SDS011;4010;42.698;23.124;2023-02-24T08:01:49;8.60;;;6.10;;
7929;SDS011;4010;42.698;23.124;2023-02-24T08:04:20;11.07;;;6.00;;
7929;SDS011;4010;42.698;23.124;2023-02-24T08:06:49;9.67;;;5.13;;
7929;SDS011;4010;42.698;23.124;2023-02-24T08:09:20;9.40;;;6.30;;
7929;SDS011;4010;42.698;23.124;2023-02-24T08:12:08;11.47;;;6.47;;
7929;SDS011;4010;42.698;23.124;2023-02-24T08:14:37;9.67;;;6.63;;
7929;SDS011;4010;42.698;23.124;2023-02-24T08:17:09;10.63;;;7.03;;
7929;SDS011;4010;42.698;23.124;2023-02-24T08:19:36;9.87;;;6.70;;
7929;SDS011;4010;42.698;23.124;2023-02-24T08:22:05;12.73;;;8.40;;
7929;SDS011;4010;42.698;23.124;2023-02-24T08:24:43;11.77;;;7.63;;
7929;SDS011;4010;42.698;23.124;2023-02-24T08:27:14;14.20;;;7.70;;
7929;SDS011;4010;42.698;23.124;2023-02-24T08:29:46;12.60;;;8.50;;
7929;SDS011;4010;42.698;23.124;2023-02-24T08:32:27;13.50;;;8.10;;
7929;SDS011;4010;42.698;23.124;2023-02-24T08:34:58;14.30;;;9.83;;
7929;SDS011;4010;42.698;23.124;2023-02-24T08:37:27;20.93;;;8.10;;
7929;SDS011;4010;42.698;23.124;2023-02-24T08:40:03;10.57;;;7.70;;
7929;SDS011;4010;42.698;23.124;2023-02-24T08:42:33;11.40;;;7.17;;
7929;SDS011;4010;42.698;23.124;2023-02-24T08:45:01;9.77;;;7.57;;
7929;SDS011;4010;42.698;23.124;2023-02-24T08:47:27;9.50;;;6.90;;
7929;SDS011;4010;42.698;23.124;2023-02-24T08:50:00;9.93;;;7.47;;
7929;SDS011;4010;42.698;23.124;2023-02-24T08:52:31;10.40;;;8.20;;
7929;SDS011;4010;42.698;23.124;2023-02-24T08:54:58;11.00;;;7.27;;
7929;SDS011;4010;42.698;23.124;2023-02-24T08:57:25;13.30;;;7.93;;
7929;SDS011;4010;42.698;23.124;2023-02-24T08:59:52;9.90;;;6.93;;
7929;SDS011;4010;42.698;23.124;2023-02-24T09:02:24;10.43;;;7.70;;
7929;SDS011;4010;42.698;23.124;2023-02-24T09:04:54;9.33;;;6.87;;
7929;SDS011;4010;42.698;23.124;2023-02-24T09:07:22;10.80;;;7.50;;
7929;SDS011;4010;42.698;23.124;2023-02-24T09:09:51;8.27;;;6.53;;
7929;SDS011;4010;42.698;23.124;2023-02-24T09:12:20;9.57;;;6.50;;
7929;SDS011;4010;42.698;23.124;2023-02-24T09:14:49;9.57;;;6.47;;
7929;SDS011;4010;42.698;23.124;2023-02-24T09:17:20;11.57;;;6.47;;
7929;SDS011;4010;42.698;23.124;2023-02-24T09:20:06;8.77;;;6.27;;
7929;SDS011;4010;42.698;23.124;2023-02-24T09:22:52;10.07;;;6.63;;
7929;SDS011;4010;42.698;23.124;2023-02-24T09:25:27;12.27;;;7.23;;
7929;SDS011;4010;42.698;23.124;2023-02-24T09:28:06;8.80;;;5.53;;
7929;SDS011;4010;42.698;23.124;2023-02-24T09:30:35;7.30;;;5.33;;
7929;SDS011;4010;42.698;23.124;2023-02-24T09:33:07;9.73;;;5.10;;
7929;SDS011;4010;42.698;23.124;2023-02-24T09:35:43;7.93;;;5.40;;
7929;SDS011;4010;42.698;23.124;2023-02-24T09:38:15;10.60;;;6.10;;
7929;SDS011;4010;42.698;23.124;2023-02-24T09:40:44;10.37;;;5.97;;
7929;SDS011;4010;42.698;23.124;2023-02-24T09:43:18;7.47;;;5.40;;
7929;SDS011;4010;42.698;23.124;2023-02-24T09:45:50;10.13;;;6.27;;
7929;SDS011;4010;42.698;23.124;2023-02-24T09:48:23;11.50;;;6.77;;
7929;SDS011;4010;42.698;23.124;2023-02-24T09:50:58;9.33;;;6.10;;
7929;SDS011;4010;42.698;23.124;2023-02-24T09:53:30;9.33;;;6.60;;
7929;SDS011;4010;42.698;23.124;2023-02-24T09:56:08;9.03;;;6.80;;
7929;SDS011;4010;42.698;23.124;2023-02-24T09:58:42;9.33;;;6.27;;
7929;SDS011;4010;42.698;23.124;2023-02-24T10:04:11;8.40;;;6.17;;
7929;SDS011;4010;42.698;23.124;2023-02-24T10:06:49;12.47;;;7.20;;
7929;SDS011;4010;42.698;23.124;2023-02-24T10:09:20;12.10;;;6.53;;
7929;SDS011;4010;42.698;23.124;2023-02-24T10:11:52;15.17;;;6.87;;
7929;SDS011;4010;42.698;23.124;2023-02-24T10:14:28;9.30;;;6.70;;
7929;SDS011;4010;42.698;23.124;2023-02-24T10:17:07;9.50;;;6.90;;
7929;SDS011;4010;42.698;23.124;2023-02-24T10:19:49;11.70;;;7.83;;
7929;SDS011;4010;42.698;23.124;2023-02-24T10:22:27;9.97;;;6.33;;
7929;SDS011;4010;42.698;23.124;2023-02-24T10:25:09;9.57;;;7.03;;
7929;SDS011;4010;42.698;23.124;2023-02-24T10:27:52;10.40;;;7.10;;
7929;SDS011;4010;42.698;23.124;2023-02-24T10:30:29;22.20;;;7.70;;
7929;SDS011;4010;42.698;23.124;2023-02-24T10:33:11;10.00;;;6.93;;
7929;SDS011;4010;42.698;23.124;2023-02-24T10:35:44;14.77;;;8.10;;
7929;SDS011;4010;42.698;23.124;2023-02-24T10:38:13;14.80;;;7.90;;
7929;SDS011;4010;42.698;23.124;2023-02-24T10:40:43;12.67;;;7.20;;
7929;SDS011;4010;42.698;23.124;2023-02-24T10:43:21;11.77;;;7.47;;
7929;SDS011;4010;42.698;23.124;2023-02-24T10:45:54;12.33;;;8.10;;
7929;SDS011;4010;42.698;23.124;2023-02-24T10:48:30;10.93;;;7.13;;
7929;SDS011;4010;42.698;23.124;2023-02-24T10:51:09;11.43;;;7.63;;
7929;SDS011;4010;42.698;23.124;2023-02-24T10:53:46;11.83;;;8.33;;
7929;SDS011;4010;42.698;23.124;2023-02-24T10:56:34;13.90;;;8.17;;
7929;SDS011;4010;42.698;23.124;2023-02-24T10:59:19;11.03;;;7.60;;
7929;SDS011;4010;42.698;23.124;2023-02-24T11:02:13;11.63;;;7.07;;
7929;SDS011;4010;42.698;23.124;2023-02-24T11:04:51;12.17;;;7.70;;
7929;SDS011;4010;42.698;23.124;2023-02-24T11:07:40;9.27;;;7.03;;
7929;SDS011;4010;42.698;23.124;2023-02-24T11:10:19;13.97;;;8.10;;
7929;SDS011;4010;42.698;23.124;2023-02-24T11:12:56;10.60;;;6.93;;
7929;SDS011;4010;42.698;23.124;2023-02-24T11:15:42;10.03;;;7.27;;
7929;SDS011;4010;42.698;23.124;2023-02-24T11:18:27;9.23;;;7.00;;
7929;SDS011;4010;42.698;23.124;2023-02-24T11:20:57;10.23;;;6.87;;
7929;SDS011;4010;42.698;23.124;2023-02-24T11:23:27;10.07;;;7.10;;
7929;SDS011;4010;42.698;23.124;2023-02-24T11:25:58;11.67;;;7.30;;
7929;SDS011;4010;42.698;23.124;2023-02-24T11:28:32;12.57;;;7.50;;
7929;SDS011;4010;42.698;23.124;2023-02-24T11:31:16;14.23;;;7.87;;
7929;SDS011;4010;42.698;23.124;2023-02-24T11:33:54;10.60;;;6.53;;
7929;SDS011;4010;42.698;23.124;2023-02-24T11:36:31;10.10;;;6.47;;
7929;SDS011;4010;42.698;23.124;2023-02-24T11:39:06;11.73;;;6.83;;
7929;SDS011;4010;42.698;23.124;2023-02-24T11:41:52;10.77;;;6.97;;
7929;SDS011;4010;42.698;23.124;2023-02-24T11:44:22;11.10;;;7.00;;
7929;SDS011;4010;42.698;23.124;2023-02-24T11:46:55;11.77;;;7.17;;
7929;SDS011;4010;42.698;23.124;2023-02-24T11:49:32;10.60;;;6.83;;
7929;SDS011;4010;42.698;23.124;2023-02-24T11:52:03;11.47;;;6.40;;
7929;SDS011;4010;42.698;23.124;2023-02-24T11:54:36;10.63;;;6.47;;
7929;SDS011;4010;42.698;23.124;2023-02-24T11:57:07;9.37;;;6.00;;
7929;SDS011;4010;42.698;23.124;2023-02-24T11:59:40;9.87;;;7.17;;
7929;SDS011;4010;42.698;23.124;2023-02-24T12:02:12;12.57;;;7.10;;
7929;SDS011;4010;42.698;23.124;2023-02-24T12:04:47;12.17;;;7.80;;
7929;SDS011;4010;42.698;23.124;2023-02-24T12:07:20;10.27;;;6.70;;
7929;SDS011;4010;42.698;23.124;2023-02-24T12:09:53;11.67;;;7.37;;
7929;SDS011;4010;42.698;23.124;2023-02-24T12:12:27;14.53;;;9.00;;
7929;SDS011;4010;42.698;23.124;2023-02-24T12:15:01;10.03;;;6.67;;
7929;SDS011;4010;42.698;23.124;2023-02-24T12:17:30;11.70;;;6.70;;
7929;SDS011;4010;42.698;23.124;2023-02-24T12:20:01;10.27;;;6.33;;
7929;SDS011;4010;42.698;23.124;2023-02-24T12:22:32;11.63;;;6.87;;
7929;SDS011;4010;42.698;23.124;2023-02-24T12:25:20;9.80;;;6.90;;
7929;SDS011;4010;42.698;23.124;2023-02-24T12:27:58;10.13;;;6.57;;
7929;SDS011;4010;42.698;23.124;2023-02-24T12:30:48;11.70;;;7.50;;
7929;SDS011;4010;42.698;23.124;2023-02-24T12:33:25;10.10;;;7.07;;
7929;SDS011;4010;42.698;23.124;2023-02-24T12:36:02;12.70;;;7.33;;
7929;SDS011;4010;42.698;23.124;2023-02-24T12:38:40;12.07;;;6.87;;
7929;SDS011;4010;42.698;23.124;2023-02-24T12:41:18;11.93;;;7.90;;
7929;SDS011;4010;42.698;23.124;2023-02-24T12:44:00;13.00;;;7.30;;
7929;SDS011;4010;42.698;23.124;2023-02-24T12:46:33;11.47;;;8.17;;
7929;SDS011;4010;42.698;23.124;2023-02-24T12:49:08;11.37;;;7.13;;
7929;SDS011;4010;42.698;23.124;2023-02-24T12:51:46;10.77;;;6.83;;
7929;SDS011;4010;42.698;23.124;2023-02-24T12:54:26;13.03;;;6.97;;
7929;SDS011;4010;42.698;23.124;2023-02-24T12:56:57;13.32;;;8.65;;
7929;SDS011;4010;42.698;23.124;2023-02-24T12:59:36;13.70;;;8.00;;
7929;SDS011;4010;42.698;23.124;2023-02-24T13:02:05;14.27;;;7.93;;
7929;SDS011;4010;42.698;23.124;2023-02-24T13:04:42;9.73;;;6.93;;
7929;SDS011;4010;42.698;23.124;2023-02-24T13:07:22;10.77;;;7.07;;
7929;SDS011;4010;42.698;23.124;2023-02-24T13:10:03;12.63;;;6.80;;
7929;SDS011;4010;42.698;23.124;2023-02-24T13:12:45;11.20;;;7.40;;
7929;SDS011;4010;42.698;23.124;2023-02-24T13:15:21;11.30;;;7.60;;
7929;SDS011;4010;42.698;23.124;2023-02-24T13:17:49;10.47;;;6.87;;
7929;SDS011;4010;42.698;23.124;2023-02-24T13:20:25;11.03;;;6.97;;
7929;SDS011;4010;42.698;23.124;2023-02-24T13:22:54;9.23;;;6.97;;
7929;SDS011;4010;42.698;23.124;2023-02-24T13:25:22;11.77;;;7.27;;
7929;SDS011;4010;42.698;23.124;2023-02-24T13:27:55;12.60;;;7.30;;
7929;SDS011;4010;42.698;23.124;2023-02-24T13:30:27;15.73;;;7.53;;
7929;SDS011;4010;42.698;23.124;2023-02-24T13:33:02;11.03;;;7.23;;
7929;SDS011;4010;42.698;23.124;2023-02-24T13:35:33;11.23;;;7.73;;
7929;SDS011;4010;42.698;23.124;2023-02-24T13:38:07;9.27;;;6.63;;
7929;SDS011;4010;42.698;23.124;2023-02-24T13:40:46;14.63;;;8.13;;
7929;SDS011;4010;42.698;23.124;2023-02-24T13:43:19;10.17;;;7.57;;
7929;SDS011;4010;42.698;23.124;2023-02-24T13:45:53;14.70;;;9.07;;
7929;SDS011;4010;42.698;23.124;2023-02-24T13:48:35;14.27;;;10.47;;
7929;SDS011;4010;42.698;23.124;2023-02-24T13:51:12;23.30;;;11.87;;
7929;SDS011;4010;42.698;23.124;2023-02-24T13:53:53;14.47;;;9.03;;
7929;SDS011;4010;42.698;23.124;2023-02-24T13:56:33;15.10;;;8.57;;
7929;SDS011;4010;42.698;23.124;2023-02-24T13:59:10;16.90;;;8.57;;
7929;SDS011;4010;42.698;23.124;2023-02-24T14:01:47;12.43;;;8.67;;
7929;SDS011;4010;42.698;23.124;2023-02-24T14:04:17;15.10;;;8.53;;
7929;SDS011;4010;42.698;23.124;2023-02-24T14:06:47;15.20;;;9.17;;
7929;SDS011;4010;42.698;23.124;2023-02-24T14:09:19;18.33;;;9.63;;
7929;SDS011;4010;42.698;23.124;2023-02-24T14:11:49;16.97;;;8.53;;
7929;SDS011;4010;42.698;23.124;2023-02-24T14:14:20;12.37;;;8.30;;
7929;SDS011;4010;42.698;23.124;2023-02-24T14:16:48;13.20;;;8.00;;
7929;SDS011;4010;42.698;23.124;2023-02-24T14:19:16;12.50;;;8.00;;
7929;SDS011;4010;42.698;23.124;2023-02-24T14:21:47;12.13;;;9.33;;
7929;SDS011;4010;42.698;23.124;2023-02-24T14:24:16;13.90;;;9.07;;
7929;SDS011;4010;42.698;23.124;2023-02-24T14:26:45;14.83;;;8.13;;
7929;SDS011;4010;42.698;23.124;2023-02-24T14:29:15;11.27;;;8.10;;
7929;SDS011;4010;42.698;23.124;2023-02-24T14:31:49;11.53;;;7.43;;
7929;SDS011;4010;42.698;23.124;2023-02-24T14:34:18;12.60;;;8.00;;
7929;SDS011;4010;42.698;23.124;2023-02-24T14:36:47;13.77;;;8.40;;
7929;SDS011;4010;42.698;23.124;2023-02-24T14:39:17;13.63;;;8.50;;
7929;SDS011;4010;42.698;23.124;2023-02-24T14:41:47;13.20;;;9.20;;
7929;SDS011;4010;42.698;23.124;2023-02-24T14:44:19;12.03;;;9.13;;
7929;SDS011;4010;42.698;23.124;2023-02-24T14:46:50;15.03;;;8.63;;
7929;SDS011;4010;42.698;23.124;2023-02-24T14:49:19;13.07;;;8.50;;
7929;SDS011;4010;42.698;23.124;2023-02-24T14:51:48;14.97;;;8.60;;
7929;SDS011;4010;42.698;23.124;2023-02-24T14:54:20;11.77;;;8.47;;
7929;SDS011;4010;42.698;23.124;2023-02-24T14:56:56;14.47;;;8.80;;
7929;SDS011;4010;42.698;23.124;2023-02-24T14:59:26;14.70;;;8.33;;
7929;SDS011;4010;42.698;23.124;2023-02-24T15:01:58;18.17;;;8.40;;
7929;SDS011;4010;42.698;23.124;2023-02-24T15:04:29;12.33;;;7.77;;
7929;SDS011;4010;42.698;23.124;2023-02-24T15:07:01;14.37;;;8.57;;
7929;SDS011;4010;42.698;23.124;2023-02-24T15:09:32;15.43;;;8.77;;
7929;SDS011;4010;42.698;23.124;2023-02-24T15:12:09;15.20;;;8.77;;
7929;SDS011;4010;42.698;23.124;2023-02-24T15:14:42;16.93;;;8.90;;
7929;SDS011;4010;42.698;23.124;2023-02-24T15:17:17;23.10;;;15.90;;
7929;SDS011;4010;42.698;23.124;2023-02-24T15:19:46;18.63;;;12.73;;
7929;SDS011;4010;42.698;23.124;2023-02-24T15:22:19;14.57;;;9.10;;
7929;SDS011;4010;42.698;23.124;2023-02-24T15:24:52;13.37;;;8.80;;
7929;SDS011;4010;42.698;23.124;2023-02-24T15:27:27;15.97;;;8.93;;
7929;SDS011;4010;42.698;23.124;2023-02-24T15:29:58;13.63;;;9.37;;
7929;SDS011;4010;42.698;23.124;2023-02-24T15:32:28;17.90;;;9.00;;
7929;SDS011;4010;42.698;23.124;2023-02-24T15:34:59;14.80;;;9.57;;
7929;SDS011;4010;42.698;23.124;2023-02-24T15:37:27;13.97;;;9.03;;